createdAt,value
2023-06-08T00:00:09.819Z,85.11
2023-06-08T00:01:12.726Z,85.00
2023-06-08T00:02:14.596Z,85.38
2023-06-08T00:03:18.494Z,85.31
2023-06-08T00:04:20.254Z,85.84
2023-06-08T00:05:22.564Z,85.62
2023-06-08T00:06:24.625Z,85.74
2023-06-08T00:07:26.222Z,85.61
2023-06-08T00:08:30.712Z,85.76
2023-06-08T00:09:32.368Z,85.43
2023-06-08T00:10:34.363Z,85.61
2023-06-08T00:11:36.477Z,84.80
2023-06-08T00:12:38.725Z,84.86
2023-06-08T00:13:40.363Z,84.66
2023-06-08T00:14:41.957Z,84.37
2023-06-08T00:15:43.638Z,83.80
2023-06-08T00:16:45.500Z,82.85
2023-06-08T00:17:47.276Z,82.81
2023-06-08T00:18:50.596Z,82.96
2023-06-08T00:19:53.892Z,82.74
2023-06-08T00:20:55.517Z,82.60
2023-06-08T00:21:57.853Z,81.85
2023-06-08T00:23:00.497Z,81.59
2023-06-08T00:24:02.941Z,81.35
2023-06-08T00:25:05.267Z,80.83
2023-06-08T00:26:07.328Z,80.58
2023-06-08T00:27:09.569Z,80.43
2023-06-08T00:28:11.301Z,80.50
2023-06-08T00:29:13.060Z,80.52
2023-06-08T00:30:15.215Z,80.72
2023-06-08T00:31:17.754Z,80.82
2023-06-08T00:32:19.345Z,80.10
2023-06-08T00:33:21.145Z,79.51
2023-06-08T00:34:22.855Z,79.23
2023-06-08T00:35:24.487Z,79.63
2023-06-08T00:36:26.059Z,80.07
2023-06-08T00:37:27.709Z,80.97
2023-06-08T00:38:29.662Z,82.01
2023-06-08T00:39:31.671Z,82.68
2023-06-08T00:40:33.238Z,83.19
2023-06-08T00:41:34.790Z,83.29
2023-06-08T00:42:36.336Z,82.62
2023-06-08T00:43:37.962Z,82.07
2023-06-08T00:44:39.510Z,81.63
2023-06-08T00:45:41.237Z,81.78
2023-06-08T00:46:43.123Z,81.96
2023-06-08T00:47:45.250Z,82.53
2023-06-08T00:48:47.436Z,82.56
2023-06-08T00:49:50.805Z,82.50
2023-06-08T00:50:53.599Z,82.95
2023-06-08T00:51:55.220Z,83.08
2023-06-08T00:52:56.832Z,83.51
2023-06-08T00:53:59.125Z,84.99
2023-06-08T00:55:02.114Z,86.81
2023-06-08T00:56:04.459Z,87.61
2023-06-08T00:57:07.693Z,88.45
2023-06-08T00:58:14.368Z,88.27
2023-06-08T00:59:16.265Z,88.88
2023-06-08T01:00:18.714Z,88.82
2023-06-08T01:01:20.353Z,88.59
2023-06-08T01:02:24.502Z,87.97
2023-06-08T01:03:34.411Z,87.31
2023-06-08T01:04:37.401Z,87.08
2023-06-08T01:05:39.604Z,87.17
2023-06-08T01:06:46.365Z,87.00
2023-06-08T01:07:56.069Z,86.66
2023-06-08T01:09:30.215Z,86.52
2023-06-08T01:10:38.379Z,86.14
2023-06-08T01:12:11.501Z,86.52
2023-06-08T01:13:38.202Z,86.37
2023-06-08T01:15:04.032Z,86.23
2023-06-08T01:16:09.546Z,85.83
2023-06-08T01:17:15.572Z,85.38
2023-06-08T01:18:23.861Z,84.71
2023-06-08T01:19:55.594Z,84.05
2023-06-08T01:21:12.849Z,83.59
2023-06-08T01:22:24.224Z,83.40
2023-06-08T01:23:46.154Z,83.93
2023-06-08T01:24:51.062Z,83.68
2023-06-08T01:25:57.305Z,83.28
2023-06-08T01:27:00.373Z,83.08
2023-06-08T01:28:16.830Z,82.98
2023-06-08T01:29:26.563Z,82.62
2023-06-08T01:30:28.539Z,82.54
2023-06-08T01:31:30.256Z,81.93
2023-06-08T01:32:32.034Z,82.18
2023-06-08T01:33:34.067Z,81.68
2023-06-08T01:34:35.811Z,81.80
2023-06-08T01:35:37.706Z,81.79
2023-06-08T01:37:10.904Z,81.74
2023-06-08T01:38:44.507Z,82.07
2023-06-08T01:40:04.779Z,81.78
2023-06-08T01:41:12.370Z,81.84
2023-06-08T01:42:18.161Z,81.57
2023-06-08T01:43:21.781Z,81.43
2023-06-08T01:44:24.604Z,81.62
2023-06-08T01:45:29.421Z,81.95
2023-06-08T01:46:33.004Z,82.19
2023-06-08T01:47:52.519Z,81.99
2023-06-08T01:48:57.154Z,81.79
2023-06-08T01:49:59.577Z,81.39
2023-06-08T01:51:01.347Z,81.53
2023-06-08T01:52:03.885Z,81.61
2023-06-08T01:53:06.840Z,81.33
2023-06-08T01:54:08.423Z,81.41
2023-06-08T01:55:17.194Z,82.09
2023-06-08T01:56:18.808Z,82.41
2023-06-08T01:57:20.426Z,82.77
2023-06-08T01:58:21.985Z,82.18
2023-06-08T01:59:23.556Z,82.47
2023-06-08T02:00:26.833Z,82.60
2023-06-08T02:01:28.610Z,82.66
2023-06-08T02:02:30.429Z,82.78
2023-06-08T02:03:32.268Z,83.47
2023-06-08T02:04:33.822Z,83.92
2023-06-08T02:05:35.417Z,84.59
2023-06-08T02:06:37.185Z,84.49
2023-06-08T02:07:39.498Z,85.09
2023-06-08T02:08:41.110Z,85.02
2023-06-08T02:09:42.680Z,85.79
2023-06-08T02:10:44.269Z,86.61
2023-06-08T02:11:46.098Z,87.09
2023-06-08T02:12:47.659Z,87.85
2023-06-08T02:13:49.906Z,89.00
2023-06-08T02:14:52.015Z,89.34
2023-06-08T02:15:54.575Z,90.45
2023-06-08T02:16:56.647Z,90.73
2023-06-08T02:18:00.534Z,90.96
2023-06-08T02:19:02.591Z,91.20
2023-06-08T02:20:10.410Z,91.73
2023-06-08T02:21:16.227Z,91.51
2023-06-08T02:22:17.875Z,91.42
2023-06-08T02:23:19.646Z,90.74
2023-06-08T02:24:21.356Z,91.29
2023-06-08T02:25:22.951Z,91.67
2023-06-08T02:26:24.552Z,91.59
2023-06-08T02:27:26.188Z,90.56
2023-06-08T02:28:27.994Z,90.39
2023-06-08T02:29:29.609Z,89.80
2023-06-08T02:30:31.511Z,89.48
2023-06-08T02:31:33.861Z,89.42
2023-06-08T02:32:35.633Z,88.72
2023-06-08T02:33:38.684Z,88.19
2023-06-08T02:34:40.301Z,87.35
2023-06-08T02:35:41.949Z,87.08
2023-06-08T02:36:43.612Z,86.54
2023-06-08T02:37:45.508Z,85.50
2023-06-08T02:38:47.054Z,86.19
2023-06-08T02:39:48.647Z,86.05
2023-06-08T02:40:50.237Z,85.94
2023-06-08T02:41:51.810Z,85.90
2023-06-08T02:42:53.474Z,85.27
2023-06-08T02:43:55.028Z,85.15
2023-06-08T02:44:56.707Z,85.43
2023-06-08T02:45:58.283Z,85.21
2023-06-08T02:46:59.902Z,84.98
2023-06-08T02:48:02.127Z,84.33
2023-06-08T02:49:03.726Z,83.93
2023-06-08T02:50:05.840Z,84.11
2023-06-08T02:51:07.944Z,83.90
2023-06-08T02:52:09.706Z,83.65
2023-06-08T02:53:12.386Z,84.24
2023-06-08T02:54:14.019Z,83.91
2023-06-08T02:55:15.680Z,83.73
2023-06-08T02:56:17.411Z,83.85
2023-06-08T02:57:19.003Z,83.91
2023-06-08T02:58:21.691Z,83.43
2023-06-08T02:59:23.565Z,83.24
2023-06-08T03:00:25.850Z,83.55
2023-06-08T03:01:31.918Z,83.55
2023-06-08T03:02:33.604Z,83.49
2023-06-08T03:03:35.186Z,83.28
2023-06-08T03:04:36.722Z,83.60
2023-06-08T03:05:40.493Z,83.04
2023-06-08T03:06:43.632Z,83.29
2023-06-08T03:07:45.288Z,83.28
2023-06-08T03:08:49.110Z,83.09
2023-06-08T03:09:50.761Z,83.04
2023-06-08T03:10:52.357Z,83.22
2023-06-08T03:11:53.972Z,83.17
2023-06-08T03:12:55.762Z,82.74
2023-06-08T03:13:57.343Z,82.42
2023-06-08T03:14:59.410Z,82.82
2023-06-08T03:16:01.082Z,83.68
2023-06-08T03:17:04.446Z,84.09
2023-06-08T03:18:06.370Z,84.14
2023-06-08T03:19:08.163Z,84.42
2023-06-08T03:20:11.133Z,84.78
2023-06-08T03:21:15.833Z,84.61
2023-06-08T03:22:21.102Z,84.94
2023-06-08T03:23:22.753Z,85.17
2023-06-08T03:24:24.302Z,84.71
2023-06-08T03:25:25.904Z,84.87
2023-06-08T03:26:27.559Z,84.54
2023-06-08T03:27:29.225Z,84.34
2023-06-08T03:28:30.878Z,84.77
2023-06-08T03:29:32.827Z,84.62
2023-06-08T03:30:34.460Z,84.48
2023-06-08T03:31:38.301Z,84.65
2023-06-08T03:32:40.127Z,84.21
2023-06-08T03:33:44.273Z,84.03
2023-06-08T03:34:46.034Z,83.91
2023-06-08T03:35:48.954Z,84.08
2023-06-08T03:36:50.526Z,83.81
2023-06-08T03:37:52.080Z,83.94
2023-06-08T03:38:53.677Z,83.64
2023-06-08T03:39:55.257Z,83.17
2023-06-08T03:40:56.871Z,82.41
2023-06-08T03:41:58.541Z,83.05
2023-06-08T03:43:00.154Z,82.04
2023-06-08T03:44:02.295Z,81.19
2023-06-08T03:45:04.339Z,80.87
2023-06-08T03:46:06.531Z,80.69
2023-06-08T03:47:10.291Z,80.30
2023-06-08T03:48:11.981Z,79.97
2023-06-08T03:49:14.239Z,79.91
2023-06-08T03:50:15.920Z,79.51
2023-06-08T03:51:21.485Z,78.74
2023-06-08T03:52:23.053Z,78.36
2023-06-08T03:53:24.886Z,78.24
2023-06-08T03:54:26.427Z,78.96
2023-06-08T03:55:28.041Z,79.39
2023-06-08T03:56:29.651Z,79.74
2023-06-08T03:57:31.497Z,79.00
2023-06-08T03:58:34.093Z,78.97
2023-06-08T03:59:35.690Z,80.05
2023-06-08T04:00:37.281Z,80.55
2023-06-08T04:01:42.608Z,80.15
2023-06-08T04:02:44.487Z,80.36
2023-06-08T04:03:46.357Z,80.33
2023-06-08T04:04:48.814Z,79.96
2023-06-08T04:05:50.395Z,79.80
2023-06-08T04:06:52.413Z,79.30
2023-06-08T04:07:54.080Z,78.50
2023-06-08T04:08:55.843Z,77.88
2023-06-08T04:09:57.419Z,77.82
2023-06-08T04:10:59.947Z,76.44
2023-06-08T04:12:01.563Z,76.22
2023-06-08T04:13:03.430Z,75.06
2023-06-08T04:14:05.040Z,74.02
2023-06-08T04:15:07.613Z,74.82
2023-06-08T04:16:11.223Z,75.78
2023-06-08T04:17:13.804Z,76.92
2023-06-08T04:18:15.416Z,76.95
2023-06-08T04:19:17.041Z,77.95
2023-06-08T04:20:18.840Z,79.35
2023-06-08T04:21:22.446Z,79.34
2023-06-08T04:22:24.222Z,78.85
2023-06-08T04:23:28.539Z,78.36
2023-06-08T04:24:30.398Z,77.97
2023-06-08T04:25:32.170Z,77.72
2023-06-08T04:26:33.859Z,76.30
2023-06-08T04:27:36.031Z,75.63
2023-06-08T04:28:37.679Z,75.46
2023-06-08T04:29:39.318Z,73.49
2023-06-08T04:30:41.198Z,73.66
2023-06-08T04:31:42.905Z,74.23
2023-06-08T04:32:44.527Z,74.00
2023-06-08T04:33:46.705Z,73.94
2023-06-08T04:34:48.320Z,74.16
2023-06-08T04:35:49.937Z,73.96
2023-06-08T04:36:51.813Z,72.99
2023-06-08T04:37:53.447Z,73.18
2023-06-08T04:38:55.035Z,73.97
2023-06-08T04:39:57.897Z,74.75
2023-06-08T04:41:02.663Z,76.30
2023-06-08T04:42:06.742Z,76.35
2023-06-08T04:43:09.881Z,75.68
2023-06-08T04:44:14.363Z,75.33
2023-06-08T04:45:20.163Z,74.95
2023-06-08T04:46:26.144Z,74.09
2023-06-08T04:47:30.868Z,73.96
2023-06-08T04:48:35.160Z,74.07
2023-06-08T04:49:36.804Z,73.58
2023-06-08T04:50:39.326Z,74.19
2023-06-08T04:51:41.496Z,72.91
2023-06-08T04:52:46.394Z,72.36
2023-06-08T04:53:47.972Z,72.12
2023-06-08T04:54:53.955Z,71.64
2023-06-08T04:56:04.957Z,71.33
2023-06-08T04:57:11.922Z,71.11
2023-06-08T04:58:13.862Z,70.71
2023-06-08T04:59:15.898Z,70.90
2023-06-08T05:00:19.781Z,71.17
2023-06-08T05:01:21.579Z,70.15
2023-06-08T05:02:23.237Z,69.84
2023-06-08T05:03:26.752Z,69.46
2023-06-08T05:04:28.462Z,69.32
2023-06-08T05:05:30.028Z,68.52
2023-06-08T05:06:31.902Z,67.84
2023-06-08T05:07:33.538Z,67.35
2023-06-08T05:08:35.174Z,66.79
2023-06-08T05:09:38.698Z,66.84
2023-06-08T05:10:42.696Z,67.31
2023-06-08T05:11:44.503Z,66.70
2023-06-08T05:12:46.389Z,66.71
2023-06-08T05:13:48.123Z,65.51
2023-06-08T05:14:49.781Z,65.18
2023-06-08T05:15:51.443Z,65.62
2023-06-08T05:16:53.129Z,66.20
2023-06-08T05:17:56.181Z,64.84
2023-06-08T05:18:57.846Z,64.43
2023-06-08T05:19:59.470Z,63.88
2023-06-08T05:21:01.259Z,64.63
2023-06-08T05:22:02.916Z,64.71
2023-06-08T05:23:04.617Z,64.90
2023-06-08T05:24:06.786Z,65.39
2023-06-08T05:25:08.537Z,65.49
2023-06-08T05:26:10.136Z,65.31
2023-06-08T05:27:11.997Z,65.57
2023-06-08T05:28:13.619Z,66.32
2023-06-08T05:29:15.355Z,66.00
2023-06-08T05:30:16.947Z,66.36
2023-06-08T05:31:18.597Z,66.00
2023-06-08T05:32:22.651Z,65.13
2023-06-08T05:33:24.299Z,66.13
2023-06-08T05:34:25.835Z,66.88
2023-06-08T05:35:27.838Z,67.29
2023-06-08T05:36:29.863Z,67.49
2023-06-08T05:37:31.612Z,67.13
2023-06-08T05:38:33.398Z,66.01
2023-06-08T05:39:35.023Z,65.66
2023-06-08T05:40:36.695Z,65.82
2023-06-08T05:41:38.327Z,65.13
2023-06-08T05:42:39.923Z,65.19
2023-06-08T05:43:41.508Z,65.41
2023-06-08T05:44:43.117Z,64.49
2023-06-08T05:45:46.775Z,63.87
2023-06-08T05:46:48.342Z,64.36
2023-06-08T05:47:49.989Z,64.33
2023-06-08T05:48:51.789Z,65.76
2023-06-08T05:49:53.415Z,65.25
2023-06-08T05:50:55.013Z,67.14
2023-06-08T05:51:56.544Z,69.78
2023-06-08T05:52:58.135Z,69.48
2023-06-08T05:53:59.701Z,69.54
2023-06-08T05:55:01.811Z,67.24
2023-06-08T05:56:03.961Z,67.81
2023-06-08T05:57:06.593Z,67.45
2023-06-08T05:58:11.325Z,67.08
2023-06-08T05:59:12.942Z,66.56
2023-06-08T06:00:15.169Z,65.99
2023-06-08T06:01:17.008Z,66.69
2023-06-08T06:02:18.636Z,66.35
2023-06-08T06:03:21.185Z,67.77
2023-06-08T06:04:35.952Z,68.50
2023-06-08T06:05:38.789Z,68.94
2023-06-08T06:06:40.498Z,66.80
2023-06-08T06:07:42.263Z,66.81
2023-06-08T06:08:44.918Z,67.91
2023-06-08T06:09:46.703Z,67.30
2023-06-08T06:10:48.334Z,66.28
2023-06-08T06:11:49.921Z,65.31
2023-06-08T06:12:51.576Z,65.05
2023-06-08T06:13:53.528Z,64.18
2023-06-08T06:14:56.558Z,63.77
2023-06-08T06:15:58.182Z,63.01
2023-06-08T06:18:07.722Z,62.45
2023-06-08T06:19:09.376Z,61.54
2023-06-08T06:20:11.340Z,63.56
2023-06-08T06:21:12.982Z,61.31
2023-06-08T06:22:14.694Z,62.31
2023-06-08T06:23:16.340Z,62.39
2023-06-08T06:24:20.001Z,64.15
2023-06-08T06:25:23.177Z,63.96
2023-06-08T06:26:27.901Z,63.53
2023-06-08T06:27:29.499Z,63.34
2023-06-08T06:28:31.700Z,62.97
2023-06-08T06:29:36.337Z,64.49
2023-06-08T06:30:38.048Z,63.08
2023-06-08T06:31:39.774Z,63.96
2023-06-08T06:32:41.402Z,63.61
2023-06-08T06:33:43.050Z,63.48
2023-06-08T06:34:47.397Z,64.02
2023-06-08T06:35:48.958Z,64.32
2023-06-08T06:36:50.786Z,62.94
2023-06-08T06:37:54.589Z,62.82
2023-06-08T06:38:56.304Z,62.41
2023-06-08T06:39:57.921Z,62.84
2023-06-08T06:40:59.482Z,62.41
2023-06-08T06:42:01.944Z,61.44
2023-06-08T06:43:03.573Z,61.69
2023-06-08T06:44:05.328Z,60.68
2023-06-08T06:45:07.846Z,61.05
2023-06-08T06:46:09.596Z,60.56
2023-06-08T06:47:11.195Z,60.07
2023-06-08T06:48:12.872Z,58.59
2023-06-08T06:49:14.629Z,59.08
2023-06-08T06:50:16.270Z,59.54
2023-06-08T06:51:17.940Z,59.38
2023-06-08T06:52:19.543Z,58.51
2023-06-08T06:53:21.374Z,58.28
2023-06-08T06:54:23.007Z,59.14
2023-06-08T06:55:24.817Z,59.22
2023-06-08T06:56:26.549Z,58.90
2023-06-08T06:57:29.736Z,60.25
2023-06-08T06:58:32.202Z,61.76
2023-06-08T06:59:34.957Z,61.55
2023-06-08T07:00:40.624Z,59.90
2023-06-08T07:01:43.094Z,59.38
2023-06-08T07:02:44.843Z,59.43
2023-06-08T07:03:47.535Z,57.98
2023-06-08T07:04:49.976Z,58.01
2023-06-08T07:05:51.527Z,56.95
2023-06-08T07:06:53.984Z,56.63
2023-06-08T07:07:55.657Z,57.46
2023-06-08T07:08:57.323Z,57.25
2023-06-08T07:09:58.875Z,58.09
2023-06-08T07:11:02.268Z,57.59
2023-06-08T07:12:15.190Z,57.36
2023-06-08T07:13:18.405Z,56.59
2023-06-08T07:14:20.099Z,58.18
2023-06-08T07:15:21.677Z,58.11
2023-06-08T07:16:27.052Z,57.85
2023-06-08T07:17:29.182Z,57.79
2023-06-08T07:18:31.091Z,58.78
2023-06-08T07:19:34.637Z,58.53
2023-06-08T07:20:36.926Z,56.91
2023-06-08T07:21:46.397Z,56.11
2023-06-08T07:23:07.494Z,55.38
2023-06-08T07:24:41.000Z,56.39
2023-06-08T07:26:25.343Z,57.15
2023-06-08T07:27:00.524Z,56.59
2023-06-08T07:28:04.926Z,55.90
2023-06-08T07:29:08.330Z,55.24
2023-06-08T07:30:10.417Z,55.71
2023-06-08T07:31:12.095Z,55.11
2023-06-08T07:32:13.725Z,54.87
2023-06-08T07:33:15.470Z,55.03
2023-06-08T07:34:17.142Z,53.30
2023-06-08T07:35:19.035Z,53.78
2023-06-08T07:36:21.781Z,55.50
2023-06-08T07:37:23.511Z,56.10
2023-06-08T07:38:25.220Z,57.30
2023-06-08T07:39:27.008Z,57.63
2023-06-08T07:40:28.681Z,58.91
2023-06-08T07:41:32.342Z,59.78
2023-06-08T07:42:35.959Z,60.54
2023-06-08T07:43:37.528Z,60.21
2023-06-08T07:44:40.246Z,60.52
2023-06-08T07:45:41.925Z,61.03
2023-06-08T07:46:43.592Z,59.87
2023-06-08T07:47:45.876Z,60.34
2023-06-08T07:48:47.516Z,59.19
2023-06-08T07:49:49.264Z,58.15
2023-06-08T07:50:50.993Z,57.94
2023-06-08T07:51:52.619Z,58.49
2023-06-08T07:52:54.408Z,59.74
2023-06-08T07:53:56.511Z,59.05
2023-06-08T07:54:58.099Z,57.84
2023-06-08T07:55:59.650Z,56.41
2023-06-08T07:57:01.540Z,55.17
2023-06-08T07:58:03.195Z,56.08
2023-06-08T07:59:04.833Z,55.25
2023-06-08T08:00:07.434Z,53.59
2023-06-08T08:01:09.880Z,52.56
2023-06-08T08:02:12.120Z,51.43
2023-06-08T08:03:13.914Z,52.41
2023-06-08T08:04:15.767Z,52.18
2023-06-08T08:05:17.762Z,50.68
2023-06-08T08:06:19.867Z,51.41
2023-06-08T08:07:21.478Z,53.06
2023-06-08T08:08:23.087Z,52.58
2023-06-08T08:09:24.655Z,52.91
2023-06-08T08:10:26.849Z,53.63
2023-06-08T08:11:29.107Z,54.13
2023-06-08T08:12:30.738Z,53.06
2023-06-08T08:13:32.447Z,54.54
2023-06-08T08:14:34.061Z,55.41
2023-06-08T08:15:36.286Z,55.37
2023-06-08T08:16:38.628Z,56.14
2023-06-08T08:17:41.914Z,54.10
2023-06-08T08:18:43.590Z,52.99
2023-06-08T08:19:45.455Z,51.20
2023-06-08T08:20:47.922Z,53.31
2023-06-08T08:21:49.949Z,54.13
2023-06-08T08:22:51.781Z,53.68
2023-06-08T08:23:53.586Z,53.60
2023-06-08T08:24:55.456Z,52.26
2023-06-08T08:25:57.148Z,53.96
2023-06-08T08:26:58.759Z,53.53
2023-06-08T08:28:00.521Z,53.04
2023-06-08T08:29:02.122Z,52.38
2023-06-08T08:30:04.081Z,53.97
2023-06-08T08:31:05.944Z,54.16
2023-06-08T08:32:07.960Z,55.46
2023-06-08T08:33:09.624Z,54.72
2023-06-08T08:34:14.093Z,55.77
2023-06-08T08:35:16.042Z,53.79
2023-06-08T08:36:18.144Z,52.88
2023-06-08T08:37:19.803Z,53.31
2023-06-08T08:38:21.406Z,54.41
2023-06-08T08:39:22.979Z,53.66
2023-06-08T08:40:24.802Z,54.50
2023-06-08T08:41:29.975Z,53.38
2023-06-08T08:42:33.391Z,53.92
2023-06-08T08:44:01.476Z,52.61
2023-06-08T08:45:07.004Z,53.61
2023-06-08T08:46:08.843Z,53.21
2023-06-08T08:47:14.311Z,51.89
2023-06-08T08:48:18.288Z,52.86
2023-06-08T08:49:22.740Z,52.86
2023-06-08T08:50:26.370Z,51.70
2023-06-08T08:51:29.684Z,52.39
2023-06-08T08:52:34.600Z,51.97
2023-06-08T08:53:36.684Z,52.38
2023-06-08T08:54:39.711Z,52.29
2023-06-08T08:55:42.460Z,52.08
2023-06-08T08:56:44.710Z,51.42
2023-06-08T08:57:46.373Z,51.64
2023-06-08T08:58:52.202Z,51.58
2023-06-08T08:59:54.042Z,51.97
2023-06-08T09:00:55.720Z,51.81
2023-06-08T09:01:57.828Z,51.83
2023-06-08T09:03:00.272Z,53.79
2023-06-08T09:04:02.816Z,50.11
2023-06-08T09:05:06.575Z,49.12
2023-06-08T09:06:08.438Z,48.54
2023-06-08T09:07:10.022Z,48.79
2023-06-08T09:08:12.436Z,48.24
2023-06-08T09:09:14.129Z,48.57
2023-06-08T09:10:24.068Z,49.08
2023-06-08T09:11:26.882Z,49.34
2023-06-08T09:12:39.443Z,50.18
2023-06-08T09:13:41.498Z,51.25
2023-06-08T09:14:58.706Z,51.33
2023-06-08T09:16:18.403Z,50.67
2023-06-08T09:17:39.183Z,51.04
2023-06-08T09:18:42.413Z,50.69
2023-06-08T09:19:53.857Z,51.62
2023-06-08T09:20:56.410Z,50.06
2023-06-08T09:21:57.969Z,49.50
2023-06-08T09:23:17.134Z,50.94
2023-06-08T09:24:21.641Z,50.92
2023-06-08T09:25:39.572Z,49.52
2023-06-08T09:26:49.499Z,48.27
2023-06-08T09:27:51.074Z,48.76
2023-06-08T09:28:52.722Z,49.15
2023-06-08T09:29:56.131Z,50.57
2023-06-08T09:30:58.992Z,50.73
2023-06-08T09:32:03.603Z,51.04
2023-06-08T09:33:21.847Z,51.74
2023-06-08T09:34:23.544Z,51.89
2023-06-08T09:35:25.537Z,52.10
2023-06-08T09:36:28.179Z,52.66
2023-06-08T09:37:34.647Z,51.36
2023-06-08T09:38:36.792Z,51.75
2023-06-08T09:39:42.901Z,51.60
2023-06-08T09:40:44.539Z,52.41
2023-06-08T09:41:58.086Z,50.93
2023-06-08T09:43:00.990Z,51.20
2023-06-08T09:44:02.849Z,51.45
2023-06-08T09:45:10.003Z,51.07
2023-06-08T09:46:32.260Z,52.21
2023-06-08T09:47:33.898Z,53.76
2023-06-08T09:48:35.873Z,51.87
2023-06-08T09:49:37.449Z,51.25
2023-06-08T09:50:39.053Z,50.62
2023-06-08T09:51:49.843Z,50.87
2023-06-08T09:52:52.632Z,51.65
2023-06-08T09:53:59.201Z,52.70
2023-06-08T09:55:01.305Z,52.56
2023-06-08T09:56:06.453Z,52.76
2023-06-08T09:57:10.273Z,50.87
2023-06-08T09:58:12.681Z,50.54
2023-06-08T09:59:18.575Z,49.78
2023-06-08T10:00:24.328Z,49.75
2023-06-08T10:01:37.043Z,50.09
2023-06-08T10:02:45.478Z,50.44
2023-06-08T10:03:52.406Z,50.42
2023-06-08T10:04:57.141Z,50.51
2023-06-08T10:06:00.338Z,51.77
2023-06-08T10:07:09.044Z,49.54
2023-06-08T10:08:13.608Z,50.53
2023-06-08T10:09:19.194Z,51.67
2023-06-08T10:10:29.961Z,52.02
2023-06-08T10:11:32.898Z,50.74
2023-06-08T10:12:34.742Z,49.88
2023-06-08T10:13:37.221Z,50.50
2023-06-08T10:14:40.465Z,52.04
2023-06-08T10:15:43.523Z,52.29
2023-06-08T10:16:47.351Z,51.32
2023-06-08T10:17:51.755Z,50.39
2023-06-08T10:18:54.607Z,53.33
2023-06-08T10:19:57.724Z,52.17
2023-06-08T10:21:01.930Z,51.65
2023-06-08T10:22:04.543Z,52.61
2023-06-08T10:23:07.244Z,53.68
2023-06-08T10:24:11.486Z,53.15
2023-06-08T10:25:17.414Z,53.25
2023-06-08T10:26:20.101Z,52.69
2023-06-08T10:27:24.692Z,52.43
2023-06-08T10:28:26.438Z,54.80
2023-06-08T10:29:28.502Z,54.74
2023-06-08T10:30:42.661Z,53.75
2023-06-08T10:31:48.585Z,54.92
2023-06-08T10:32:51.778Z,52.46
2023-06-08T10:33:58.207Z,51.82
2023-06-08T10:35:02.911Z,52.08
2023-06-08T10:36:10.119Z,53.52
2023-06-08T10:37:45.207Z,52.89
2023-06-08T10:39:01.269Z,53.01
2023-06-08T10:40:12.691Z,53.30
2023-06-08T10:41:47.609Z,52.08
2023-06-08T10:43:00.445Z,52.03
2023-06-08T10:44:33.963Z,52.44
2023-06-08T10:45:42.012Z,52.38
2023-06-08T10:46:44.173Z,51.73
2023-06-08T10:47:45.839Z,53.61
2023-06-08T10:48:49.566Z,53.60
2023-06-08T10:50:06.341Z,52.92
2023-06-08T10:51:12.430Z,53.32
2023-06-08T10:52:23.123Z,52.46
2023-06-08T10:53:41.774Z,51.78
2023-06-08T10:55:10.173Z,51.46
2023-06-08T10:56:12.151Z,52.26
2023-06-08T10:57:38.166Z,52.76
2023-06-08T10:58:52.692Z,50.98
2023-06-08T10:59:55.472Z,51.17
2023-06-08T11:01:08.245Z,51.89
2023-06-08T11:02:10.523Z,50.99
2023-06-08T11:03:13.999Z,51.50
2023-06-08T11:04:19.252Z,52.61
2023-06-08T11:05:24.565Z,51.20
2023-06-08T11:06:30.452Z,52.29
2023-06-08T11:07:32.858Z,51.23
2023-06-08T11:08:34.784Z,52.90
2023-06-08T11:09:37.851Z,51.28
2023-06-08T11:10:41.099Z,51.93
2023-06-08T11:11:52.242Z,51.71
2023-06-08T11:13:03.763Z,50.74
2023-06-08T11:14:05.336Z,48.76
2023-06-08T11:15:07.738Z,51.11
2023-06-08T11:16:09.789Z,51.65
2023-06-08T11:17:11.584Z,50.91
2023-06-08T11:18:13.515Z,50.42
2023-06-08T11:19:17.909Z,50.42
2023-06-08T11:20:28.164Z,51.01
2023-06-08T11:21:29.836Z,49.88
2023-06-08T11:22:31.449Z,49.51
2023-06-08T11:23:35.290Z,50.59
2023-06-08T11:24:36.993Z,47.85
2023-06-08T11:25:39.849Z,48.31
2023-06-08T11:26:52.290Z,48.19
2023-06-08T11:28:04.833Z,48.14
2023-06-08T11:29:06.924Z,50.00
2023-06-08T11:30:10.584Z,47.81
2023-06-08T11:31:12.237Z,48.13
2023-06-08T11:32:16.992Z,48.71
2023-06-08T11:33:20.821Z,48.76
2023-06-08T11:34:23.691Z,47.40
2023-06-08T11:35:26.194Z,50.14
2023-06-08T11:36:28.570Z,46.68
2023-06-08T11:37:34.593Z,47.38
2023-06-08T11:38:36.286Z,46.99
2023-06-08T11:39:43.942Z,47.58
2023-06-08T11:40:45.573Z,47.76
2023-06-08T11:41:47.795Z,48.63
2023-06-08T11:42:50.856Z,48.34
2023-06-08T11:43:52.392Z,46.64
2023-06-08T11:44:55.532Z,46.61
2023-06-08T11:46:00.973Z,46.85
2023-06-08T11:47:03.068Z,47.49
2023-06-08T11:48:16.349Z,47.37
2023-06-08T11:49:18.762Z,46.82
2023-06-08T11:50:20.983Z,46.96
2023-06-08T11:51:26.347Z,47.90
2023-06-08T11:52:31.352Z,48.03
2023-06-08T11:53:33.379Z,46.68
2023-06-08T11:54:35.238Z,45.86
2023-06-08T11:55:40.204Z,46.10
2023-06-08T11:56:43.181Z,46.47
2023-06-08T11:57:52.914Z,44.74
2023-06-08T11:58:54.641Z,44.89
2023-06-08T11:59:56.421Z,45.93
2023-06-08T12:01:06.639Z,46.11
2023-06-08T12:02:11.639Z,45.20
2023-06-08T12:03:13.389Z,46.30
2023-06-08T12:04:15.287Z,46.33
2023-06-08T12:05:23.163Z,46.20
2023-06-08T12:06:27.759Z,45.57
2023-06-08T12:07:30.004Z,46.02
2023-06-08T12:08:34.301Z,47.19
2023-06-08T12:09:36.149Z,46.97
2023-06-08T12:10:46.280Z,47.72
2023-06-08T12:11:47.886Z,47.76
2023-06-08T12:12:50.371Z,47.20
2023-06-08T12:13:53.611Z,46.47
2023-06-08T12:14:56.729Z,46.53
2023-06-08T12:15:58.346Z,45.02
2023-06-08T12:17:04.060Z,45.26
2023-06-08T12:18:05.857Z,44.56
2023-06-08T12:19:07.729Z,45.21
2023-06-08T12:20:10.006Z,45.27
2023-06-08T12:21:17.630Z,46.15
2023-06-08T12:22:19.556Z,44.22
2023-06-08T12:23:23.960Z,44.36
2023-06-08T12:24:26.150Z,43.77
2023-06-08T12:25:27.762Z,41.99
2023-06-08T12:26:29.362Z,43.77
2023-06-08T12:27:36.899Z,45.24
2023-06-08T12:28:39.448Z,44.94
2023-06-08T12:29:42.656Z,44.17
2023-06-08T12:30:44.239Z,43.90
2023-06-08T12:31:46.050Z,44.09
2023-06-08T12:32:47.955Z,43.17
2023-06-08T12:33:49.642Z,42.89
2023-06-08T12:34:51.984Z,43.49
2023-06-08T12:35:55.280Z,43.31
2023-06-08T12:36:56.904Z,43.97
2023-06-08T12:37:58.577Z,44.72
2023-06-08T12:39:00.957Z,45.65
2023-06-08T12:40:04.677Z,44.78
2023-06-08T12:41:06.704Z,43.85
2023-06-08T12:42:08.692Z,44.63
2023-06-08T12:43:10.360Z,43.55
2023-06-08T12:44:12.106Z,42.88
2023-06-08T12:45:14.623Z,43.67
2023-06-08T12:46:20.190Z,45.46
2023-06-08T12:47:22.346Z,44.51
2023-06-08T12:48:24.392Z,44.87
2023-06-08T12:49:26.895Z,45.51
2023-06-08T12:50:30.457Z,43.31
2023-06-08T12:51:32.101Z,45.32
2023-06-08T12:52:33.834Z,44.43
2023-06-08T12:53:35.570Z,42.13
2023-06-08T12:54:37.707Z,40.95
2023-06-08T12:55:39.431Z,41.72
2023-06-08T12:56:41.069Z,41.74
2023-06-08T12:57:42.967Z,42.76
2023-06-08T12:58:44.698Z,42.04
2023-06-08T12:59:46.292Z,43.11
2023-06-08T13:00:48.065Z,43.39
2023-06-08T13:01:50.016Z,42.50
2023-06-08T13:02:53.504Z,41.57
2023-06-08T13:03:55.691Z,43.16
2023-06-08T13:04:57.578Z,44.22
2023-06-08T13:05:59.207Z,42.24
2023-06-08T13:07:00.755Z,42.95
2023-06-08T13:08:07.388Z,42.84
2023-06-08T13:09:09.088Z,43.04
2023-06-08T13:10:11.696Z,41.81
2023-06-08T13:11:16.261Z,42.65
2023-06-08T13:12:17.918Z,41.35
2023-06-08T13:13:19.640Z,40.54
2023-06-08T13:14:21.347Z,41.86
2023-06-08T13:15:23.017Z,41.12
2023-06-08T13:16:25.150Z,41.39
2023-06-08T13:17:27.089Z,41.92
2023-06-08T13:18:30.691Z,41.21
2023-06-08T13:19:32.779Z,43.16
2023-06-08T13:20:34.746Z,43.64
2023-06-08T13:21:36.570Z,43.40
2023-06-08T13:22:38.302Z,43.14
2023-06-08T13:23:40.007Z,43.61
2023-06-08T13:24:43.238Z,43.50
2023-06-08T13:25:44.995Z,42.76
2023-06-08T13:26:49.019Z,42.88
2023-06-08T13:27:50.939Z,41.30
2023-06-08T13:28:52.599Z,41.44
2023-06-08T13:29:54.477Z,41.47
2023-06-08T13:30:56.145Z,41.90
2023-06-08T13:31:57.814Z,41.49
2023-06-08T13:33:03.239Z,41.53
2023-06-08T13:34:06.189Z,41.06
2023-06-08T13:35:08.187Z,42.86
2023-06-08T13:36:09.872Z,42.73
2023-06-08T13:37:11.763Z,42.60
2023-06-08T13:38:13.993Z,41.50
2023-06-08T13:39:15.623Z,42.79
2023-06-08T13:40:17.265Z,41.37
2023-06-08T13:41:19.292Z,41.72
2023-06-08T13:42:21.965Z,40.89